| time (UTC) | temp F | wind direction | speed knots | gust knots | rain 1hr in | rain 24hr in | rain mn in | humidity % | barometer mb |
| 20260504221408 | 64 | 25 | 13.0 | 17.4 | 0.00 | 0.00 | 0.00 | 29 | 1005.9 |
| 20260504220905 | 64 | 54 | 13.0 | 19.1 | 0.00 | 0.00 | 0.00 | 30 | 1006.4 |
| 20260504220401 | 64 | 39 | 9.6 | 16.5 | 0.00 | 0.00 | 0.00 | 30 | 1006.4 |
| 20260504215858 | 64 | 29 | 13.9 | 18.2 | 0.00 | 0.00 | 0.00 | 30 | 1006.4 |
| 20260504215355 | 64 | 14 | 13.0 | 15.6 | 0.00 | 0.00 | 0.00 | 30 | 1006.1 |
| 20260504214851 | 64 | 31 | 9.6 | 15.6 | 0.00 | 0.00 | 0.00 | 30 | 1006.2 |
| 20260504214348 | 65 | 48 | 11.3 | 17.4 | 0.00 | 0.00 | 0.00 | 29 | 1006.1 |
| 20260504213845 | 65 | 51 | 13.9 | 15.6 | 0.00 | 0.00 | 0.00 | 28 | 1005.8 |
| 20260504213340 | 65 | 19 | 10.4 | 19.1 | 0.00 | 0.00 | 0.00 | 29 | 1006.1 |
| 20260504212838 | 65 | 39 | 12.2 | 20.0 | 0.00 | 0.00 | 0.00 | 29 | 1006.1 |
| 20260504212334 | 66 | 11 | 5.2 | 16.5 | 0.00 | 0.00 | 0.00 | 28 | 1005.8 |
| 20260504211832 | 66 | 26 | 13.0 | 16.5 | 0.00 | 0.00 | 0.00 | 27 | 1005.8 |
| 20260504211328 | 66 | 58 | 18.2 | 25.2 | 0.00 | 0.00 | 0.00 | 28 | 1005.9 |
| 20260504210826 | 67 | 23 | 12.2 | 16.5 | 0.00 | 0.00 | 0.00 | 28 | 1005.7 |
| 20260504210323 | 66 | 32 | 13.9 | 21.7 | 0.00 | 0.00 | 0.00 | 27 | 1005.7 |
| 20260504205820 | 66 | 31 | 10.4 | 20.9 | 0.00 | 0.00 | 0.00 | 27 | 1005.7 |
| 20260504205318 | 67 | 61 | 17.4 | 20.9 | 0.00 | 0.00 | 0.00 | 26 | 1005.8 |
| 20260504204815 | 67 | 10 | 11.3 | 18.2 | 0.00 | 0.00 | 0.00 | 27 | 1005.6 |
| 20260504204314 | 68 | 25 | 13.0 | 19.1 | 0.00 | 0.00 | 0.00 | 26 | 1005.7 |
| 20260504203813 | 67 | 4 | 14.8 | 24.3 | 0.00 | 0.00 | 0.00 | 27 | 1005.5 |
| 20260504203309 | 66 | 22 | 10.4 | 20.9 | 0.00 | 0.00 | 0.00 | 27 | 1005.7 |
| 20260504202804 | 67 | 33 | 10.4 | 24.3 | 0.00 | 0.00 | 0.00 | 27 | 1005.5 |
| 20260504202304 | 69 | 21 | 10.4 | 23.5 | 0.00 | 0.00 | 0.00 | 26 | 1005.4 |
| 20260504201759 | 69 | 47 | 18.2 | 20.9 | 0.00 | 0.00 | 0.00 | 25 | 1005.4 |
| 20260504201256 | 71 | 26 | 18.2 | 20.9 | 0.00 | 0.00 | 0.00 | 24 | 1005.3 |
| 20260504200754 | 70 | 18 | 13.0 | 20.9 | 0.00 | 0.00 | 0.00 | 25 | 1005.3 |
| 20260504200249 | 69 | 36 | 10.4 | 20.0 | 0.00 | 0.00 | 0.00 | 26 | 1005.4 |
| 20260504195746 | 70 | 41 | 15.6 | 21.7 | 0.00 | 0.00 | 0.00 | 26 | 1005.4 |
| 20260504195242 | 69 | 46 | 14.8 | 16.5 | 0.00 | 0.00 | 0.00 | 25 | 1005.5 |
| 20260504194739 | 70 | 43 | 13.0 | 22.6 | 0.00 | 0.00 | 0.00 | 25 | 1005.3 |
| 20260504194235 | 69 | 20 | 10.4 | 21.7 | 0.00 | 0.00 | 0.00 | 26 | 1005.5 |
| 20260504193732 | 69 | 27 | 18.2 | 20.0 | 0.00 | 0.00 | 0.00 | 26 | 1005.4 |
| 20260504193229 | 69 | 31 | 14.8 | 19.1 | 0.00 | 0.00 | 0.00 | 26 | 1005.5 |
| 20260504192728 | 68 | 27 | 13.0 | 17.4 | 0.00 | 0.00 | 0.00 | 27 | 1005.5 |
| 20260504192225 | 67 | 358 | 18.2 | 23.5 | 0.00 | 0.00 | 0.00 | 27 | 1005.6 |
| 20260504191724 | 70 | 9 | 20.9 | 20.9 | 0.00 | 0.00 | 0.00 | 26 | 1005.7 |
| 20260504191220 | 69 | 357 | 14.8 | 26.1 | 0.00 | 0.00 | 0.00 | 27 | 1005.6 |
| 20260504190715 | 69 | 4 | 18.2 | 22.6 | 0.00 | 0.00 | 0.00 | 27 | 1005.7 |
| 20260504190212 | 70 | 16 | 20.9 | 21.7 | 0.00 | 0.00 | 0.00 | 27 | 1005.5 |
| 20260504185709 | 69 | 0 | 21.7 | 25.2 | 0.00 | 0.00 | 0.00 | 28 | 1005.6 |
| 20260504185205 | 71 | 31 | 8.7 | 18.2 | 0.00 | 0.00 | 0.00 | 27 | 1005.6 |
| 20260504184702 | 69 | 29 | 19.1 | 20.0 | 0.00 | 0.00 | 0.00 | 29 | 1005.5 |
| 20260504184157 | 70 | 29 | 14.8 | 21.7 | 0.00 | 0.00 | 0.00 | 28 | 1005.6 |
| 20260504183654 | 70 | 4 | 11.3 | 21.7 | 0.00 | 0.00 | 0.00 | 29 | 1005.1 |
| 20260504183151 | 69 | 13 | 11.3 | 24.3 | 0.00 | 0.00 | 0.00 | 29 | 1005.4 |
| 20260504182649 | 70 | 18 | 14.8 | 24.3 | 0.00 | 0.00 | 0.00 | 27 | 1005.1 |
| 20260504182146 | 70 | 13 | 8.7 | 13.0 | 0.00 | 0.00 | 0.00 | 25 | 1005.0 |
| 20260504181644 | 69 | 39 | 14.8 | 17.4 | 0.00 | 0.00 | 0.00 | 26 | 1005.3 |
| 20260504181141 | 70 | 56 | 11.3 | 17.4 | 0.00 | 0.00 | 0.00 | 26 | 1005.1 |
| 20260504180640 | 69 | 57 | 13.0 | 19.1 | 0.00 | 0.00 | 0.00 | 28 | 1005.3 |
| 20260504180138 | 68 | 18 | 9.6 | 18.2 | 0.00 | 0.00 | 0.00 | 27 | 1005.0 |
| 20260504175635 | 70 | 23 | 13.0 | 18.2 | 0.00 | 0.00 | 0.00 | 26 | 1004.8 |
| 20260504175132 | 69 | 16 | 13.9 | 19.1 | 0.00 | 0.00 | 0.00 | 26 | 1004.9 |
| 20260504174630 | 69 | 37 | 14.8 | 17.4 | 0.00 | 0.00 | 0.00 | 25 | 1004.8 |
| 20260504174126 | 69 | 10 | 18.2 | 23.5 | 0.00 | 0.00 | 0.00 | 25 | 1005.0 |
| 20260504173624 | 72 | 345 | 13.0 | 13.9 | 0.00 | 0.00 | 0.00 | 17 | 1004.7 |
| 20260504173121 | 74 | 11 | 4.3 | 10.4 | 0.00 | 0.00 | 0.00 | 17 | 1004.7 |
| 20260504172617 | 74 | 306 | 3.5 | 3.5 | 0.00 | 0.00 | 0.00 | 17 | 1004.9 |
| 20260504172114 | 74 | 217 | 0.9 | 4.3 | 0.00 | 0.00 | 0.00 | 18 | 1004.9 |
| 20260504171610 | 74 | 142 | 3.5 | 7.0 | 0.00 | 0.00 | 0.00 | 18 | 1004.8 |
| 20260504171108 | 72 | 71 | 1.7 | 2.6 | 0.00 | 0.00 | 0.00 | 19 | 1004.8 |
| 20260504170603 | 71 | 148 | 5.2 | 7.8 | 0.00 | 0.00 | 0.00 | 20 | 1004.6 |
| 20260504150947 | 69 | 341 | 5.2 | 5.2 | 0.00 | 0.00 | 0.00 | 24 | 1005.5 |
| 20260504150444 | 67 | 216 | 2.6 | 3.5 | 0.00 | 0.00 | 0.00 | 25 | 1005.6 |
| 20260504140910 | 58 | 281 | 3.5 | 6.1 | 0.00 | 0.00 | 0.00 | 35 | 1005.8 |
| 20260504140406 | 57 | 255 | 4.3 | 6.1 | 0.00 | 0.00 | 0.00 | 36 | 1006.1 |
| 20260504130719 | 49 | 307 | 7.0 | 7.8 | 0.00 | 0.00 | 0.00 | 45 | 1006.4 |
| 20260504130215 | 48 | 303 | 4.3 | 7.0 | 0.00 | 0.00 | 0.00 | 46 | 1006.4 |
| 20260504110439 | 44 | 309 | 5.2 | 6.1 | 0.00 | 0.00 | 0.00 | 55 | 1006.4 |
| 20260504100355 | 48 | 241 | 2.6 | 3.5 | 0.00 | 0.00 | 0.00 | 49 | 1006.5 |
| 20260504081748 | 45 | 203 | 4.3 | 7.0 | 0.00 | 0.00 | 0.00 | 56 | 1007.7 |
| 20260504081245 | 45 | 193 | 5.2 | 7.8 | 0.00 | 0.00 | 0.00 | 55 | 1007.7 |
| 20260504080741 | 44 | 191 | 4.3 | 5.2 | 0.00 | 0.00 | 0.00 | 58 | 1007.8 |
| 20260504080238 | 44 | 192 | 4.3 | 6.1 | 0.00 | 0.00 | 0.00 | 59 | 1007.8 |
| 20260504070206 | 47 | 175 | 5.2 | 5.2 | 0.00 | 0.00 | 0.00 | 54 | 1008.5 |
| 20260504060126 | 51 | 174 | 3.5 | 3.5 | 0.00 | 0.00 | 0.00 | 51 | 1009.0 |
| 20260504050554 | 50 | 5 | 2.6 | 4.3 | 0.00 | 0.00 | 0.00 | 51 | 1009.2 |
| 20260504045548 | 51 | 88 | 3.5 | 4.3 | 0.00 | 0.00 | 0.00 | 51 | 1009.0 |
| 20260504045043 | 51 | 68 | 3.5 | 5.2 | 0.00 | 0.00 | 0.00 | 50 | 1009.1 |
| 20260504044541 | 51 | 78 | 5.2 | 6.1 | 0.00 | 0.00 | 0.00 | 51 | 1009.1 |
| 20260504044038 | 51 | 93 | 3.5 | 4.3 | 0.00 | 0.00 | 0.00 | 50 | 1009.2 |
| 20260504043535 | 51 | 93 | 3.5 | 4.3 | 0.00 | 0.00 | 0.00 | 49 | 1009.5 |
| 20260504043032 | 51 | 87 | 4.3 | 4.3 | 0.00 | 0.00 | 0.00 | 49 | 1009.4 |
| 20260504042529 | 51 | 104 | 3.5 | 4.3 | 0.00 | 0.00 | 0.00 | 49 | 1009.4 |
| 20260504042026 | 51 | 102 | 4.3 | 4.3 | 0.00 | 0.00 | 0.00 | 49 | 1009.4 |
| 20260504041522 | 51 | 94 | 5.2 | 5.2 | 0.00 | 0.00 | 0.00 | 49 | 1009.6 |
| 20260504041018 | 51 | 103 | 5.2 | 5.2 | 0.00 | 0.00 | 0.00 | 49 | 1009.6 |
| 20260504040516 | 50 | 105 | 6.1 | 7.8 | 0.00 | 0.00 | 0.00 | 51 | 1009.6 |
| 20260504040012 | 49 | 122 | 6.1 | 7.8 | 0.00 | 0.00 | 0.00 | 50 | 1009.5 |
| 20260504035509 | 50 | 136 | 5.2 | 5.2 | 0.00 | 0.00 | 0.00 | 49 | 1009.6 |
| 20260504035005 | 51 | 120 | 4.3 | 5.2 | 0.00 | 0.00 | 0.00 | 48 | 1009.5 |
| 20260504034503 | 52 | 116 | 4.3 | 6.1 | 0.00 | 0.00 | 0.00 | 48 | 1009.6 |
| 20260504034000 | 51 | 128 | 3.5 | 5.2 | 0.00 | 0.00 | 0.00 | 49 | 1009.7 |
| 20260504033458 | 50 | 118 | 6.1 | 7.0 | 0.00 | 0.00 | 0.00 | 51 | 1009.8 |
| 20260504032955 | 50 | 139 | 5.2 | 6.1 | 0.00 | 0.00 | 0.00 | 49 | 1009.6 |
| 20260504032452 | 52 | 145 | 5.2 | 6.1 | 0.00 | 0.00 | 0.00 | 46 | 1009.6 |
| 20260504031948 | 53 | 100 | 3.5 | 3.5 | 0.00 | 0.00 | 0.00 | 46 | 1009.6 |
| 20260504031445 | 54 | 70 | 4.3 | 6.1 | 0.00 | 0.00 | 0.00 | 44 | 1009.5 |
| 20260504030942 | 55 | 71 | 6.1 | 7.0 | 0.00 | 0.00 | 0.00 | 43 | 1009.5 |
| 20260504030439 | 56 | 57 | 7.8 | 7.8 | 0.00 | 0.00 | 0.00 | 42 | 1009.5 |
| 20260504025935 | 56 | 41 | 6.1 | 8.7 | 0.00 | 0.00 | 0.00 | 42 | 1009.2 |
| 20260504025432 | 56 | 46 | 7.0 | 9.6 | 0.00 | 0.00 | 0.00 | 42 | 1009.4 |
| 20260504024929 | 57 | 50 | 5.2 | 9.6 | 0.00 | 0.00 | 0.00 | 40 | 1009.4 |
| 20260504024426 | 58 | 52 | 6.1 | 9.6 | 0.00 | 0.00 | 0.00 | 39 | 1009.4 |
| 20260504023923 | 59 | 32 | 9.6 | 11.3 | 0.00 | 0.00 | 0.00 | 39 | 1009.4 |
| 20260504023419 | 59 | 42 | 7.8 | 13.0 | 0.00 | 0.00 | 0.00 | 37 | 1009.4 |
| 20260504022915 | 60 | 34 | 8.7 | 16.5 | 0.00 | 0.00 | 0.00 | 36 | 1009.1 |
| 20260504022412 | 61 | 24 | 8.7 | 16.5 | 0.00 | 0.00 | 0.00 | 35 | 1009.2 |
| 20260504021908 | 62 | 26 | 9.6 | 20.0 | 0.00 | 0.00 | 0.00 | 32 | 1009.0 |
| 20260504021406 | 64 | 353 | 15.6 | 19.1 | 0.00 | 0.00 | 0.00 | 28 | 1009.0 |
| 20260504020903 | 64 | 12 | 8.7 | 10.4 | 0.00 | 0.00 | 0.00 | 27 | 1008.7 |
| 20260504020359 | 63 | 7 | 7.8 | 8.7 | 0.00 | 0.00 | 0.00 | 27 | 1008.7 |
| 20260504015855 | 64 | 19 | 1.7 | 2.6 | 0.00 | 0.00 | 0.00 | 26 | 1008.3 |
| 20260504015351 | 65 | 18 | 1.7 | 3.5 | 0.00 | 0.00 | 0.00 | 25 | 1008.1 |
| 20260504014848 | 65 | 57 | 1.7 | 1.7 | 0.00 | 0.00 | 0.00 | 25 | 1008.0 |
| 20260504014344 | 65 | 9 | 3.5 | 5.2 | 0.00 | 0.00 | 0.00 | 25 | 1008.0 |
| 20260504013842 | 65 | 7 | 6.1 | 7.8 | 0.00 | 0.00 | 0.00 | 25 | 1007.8 |
| 20260504013339 | 66 | 325 | 7.8 | 13.0 | 0.00 | 0.00 | 0.00 | 24 | 1007.9 |
| 20260504012836 | 67 | 158 | 5.2 | 7.0 | 0.00 | 0.00 | 0.00 | 23 | 1007.5 |
| 20260504012334 | 68 | 300 | 3.5 | 9.6 | 0.00 | 0.00 | 0.00 | 22 | 1007.5 |
| 20260504011831 | 65 | 173 | 8.7 | 9.6 | 0.00 | 0.00 | 0.00 | 24 | 1007.7 |
| 20260504011327 | 65 | 183 | 2.6 | 3.5 | 0.00 | 0.00 | 0.00 | 25 | 1007.9 |
| 20260504010823 | 66 | 141 | 4.3 | 5.2 | 0.00 | 0.00 | 0.00 | 25 | 1007.7 |
| 20260504010319 | 66 | 152 | 3.5 | 4.3 | 0.00 | 0.00 | 0.00 | 24 | 1007.7 |
| 20260504005816 | 67 | 138 | 3.5 | 4.3 | 0.00 | 0.00 | 0.00 | 23 | 1007.5 |
| 20260504005313 | 67 | 147 | 4.3 | 4.3 | 0.00 | 0.00 | 0.00 | 24 | 1007.7 |
| 20260504004810 | 68 | 133 | 1.7 | 4.3 | 0.00 | 0.00 | 0.00 | 23 | 1007.7 |
| 20260504004308 | 68 | 124 | 5.2 | 6.1 | 0.00 | 0.00 | 0.00 | 22 | 1007.7 |
| 20260504003804 | 68 | 148 | 6.1 | 7.8 | 0.00 | 0.00 | 0.00 | 23 | 1007.7 |
| 20260504003301 | 69 | 175 | 3.5 | 5.2 | 0.00 | 0.00 | 0.00 | 22 | 1007.4 |
| 20260504002757 | 69 | 189 | 6.1 | 7.8 | 0.00 | 0.00 | 0.00 | 22 | 1007.5 |
| 20260504002254 | 70 | 108 | 7.0 | 12.2 | 0.00 | 0.00 | 0.00 | 20 | 1007.4 |
| 20260504001752 | 71 | 118 | 7.0 | 12.2 | 0.00 | 0.00 | 0.00 | 20 | 1007.5 |
| 20260504001249 | 71 | 155 | 8.7 | 12.2 | 0.00 | 0.00 | 0.00 | 20 | 1007.4 |
| 20260504000746 | 71 | 66 | 2.6 | 7.8 | 0.00 | 0.00 | 0.00 | 20 | 1007.7 |
| 20260504000243 | 71 | 180 | 3.5 | 11.3 | 0.00 | 0.00 | 0.00 | 20 | 1007.7 |
| 20260503235741 | 72 | 115 | 7.0 | 7.0 | 0.00 | 0.00 | 0.00 | 19 | 1007.9 |
| 20260503235238 | 72 | 3 | 3.5 | 3.5 | 0.00 | 0.00 | 0.00 | 20 | 1007.7 |
| 20260503234735 | 71 | 140 | 3.5 | 4.3 | 0.00 | 0.00 | 0.00 | 20 | 1008.0 |
| 20260503234233 | 70 | 208 | 1.7 | 3.5 | 0.00 | 0.00 | 0.00 | 21 | 1008.5 |
| 20260503233730 | 70 | 123 | 3.5 | 4.3 | 0.00 | 0.00 | 0.00 | 21 | 1008.2 |
| 20260503233225 | 70 | 124 | 3.5 | 7.0 | 0.00 | 0.00 | 0.00 | 21 | 1008.1 |
| 20260503232717 | 70 | 104 | 4.3 | 4.3 | 0.00 | 0.00 | 0.00 | 21 | 1008.2 |
| 20260503232214 | 70 | 183 | 1.7 | 2.6 | 0.00 | 0.00 | 0.00 | 20 | 1008.1 |
| 20260503231713 | 71 | 236 | 2.6 | 5.2 | 0.00 | 0.00 | 0.00 | 20 | 1008.3 |
| 20260503231209 | 70 | 121 | 2.6 | 3.5 | 0.00 | 0.00 | 0.00 | 20 | 1008.2 |
| 20260503230705 | 70 | 127 | 5.2 | 7.8 | 0.00 | 0.00 | 0.00 | 20 | 1008.2 |
| 20260503230203 | 71 | 156 | 1.7 | 7.8 | 0.00 | 0.00 | 0.00 | 20 | 1008.3 |
| 20260503225659 | 71 | 156 | 7.8 | 10.4 | 0.00 | 0.00 | 0.00 | 20 | 1008.2 |
| 20260503225154 | 71 | 133 | 4.3 | 6.1 | 0.00 | 0.00 | 0.00 | 20 | 1008.3 |
| 20260503224652 | 71 | 234 | 2.6 | 9.6 | 0.00 | 0.00 | 0.00 | 20 | 1008.2 |
| 20260503224149 | 71 | 200 | 4.3 | 11.3 | 0.00 | 0.00 | 0.00 | 20 | 1008.5 |
| 20260503223647 | 72 | 172 | 7.8 | 10.4 | 0.00 | 0.00 | 0.00 | 19 | 1008.5 |
| 20260503223143 | 71 | 202 | 4.3 | 12.2 | 0.00 | 0.00 | 0.00 | 20 | 1008.6 |
| 20260503222641 | 71 | 198 | 7.8 | 11.3 | 0.00 | 0.00 | 0.00 | 20 | 1008.7 |
| 20260503222138 | 71 | 180 | 3.5 | 7.8 | 0.00 | 0.00 | 0.00 | 20 | 1008.8 |
| 20260503221636 | 71 | 153 | 7.8 | 9.6 | 0.00 | 0.00 | 0.00 | 20 | 1009.0 |